Time;durP1;ratioP1;P1;durP2;ratioP2;P2;SDS_P1;SDS_P2;PMS_P1;PMS_P2;Temp;Humidity;BMP_temperature;BMP_pressure;BME280_temperature;BME280_humidity;BME280_pressure;Samples;Min_cycle;Max_cycle;Signal;HPM_P1;HPM_P2
2023/06/21 08:57:17;;;;;;;9.02;6.80;;;;;;;21.37;100.00;101436.91;5129791;27;20743;-70
2023/06/21 08:59:53;;;;;;;9.77;7.15;;;;;;;21.37;100.00;101432.22;5111211;27;20054;-71
2023/06/21 09:02:29;;;;;;;6.15;5.55;;;;;;;21.48;100.00;101432.19;5104191;28;20047;-71
2023/06/21 09:04:59;;;;;;;5.60;5.10;;;;;;;21.58;99.06;101432.16;5106018;28;20028;-72
2023/06/21 09:07:26;;;;;;;6.03;4.60;;;;;;;21.61;87.72;101430.75;5108678;28;20039;-75
2023/06/21 09:09:53;;;;;;;5.20;4.00;;;;;;;21.67;81.11;101435.94;5104535;28;20028;-71
2023/06/21 09:12:18;;;;;;;5.60;4.22;;;;;;;21.84;84.39;101440.22;5116023;27;20120;-70
2023/06/21 09:14:44;;;;;;;5.47;4.65;;;;;;;21.84;84.13;101434.72;5121984;27;20024;-71
2023/06/21 09:17:14;;;;;;;6.35;4.20;;;;;;;21.92;84.05;101445.13;5118409;28;20039;-73
2023/06/21 09:19:41;;;;;;;4.13;3.60;;;;;;;21.94;77.32;101445.69;5109641;28;20047;-74
2023/06/21 09:22:06;;;;;;;4.10;3.10;;;;;;;21.95;70.07;101447.28;5107195;28;20028;-71
2023/06/21 09:24:32;;;;;;;3.42;2.83;;;;;;;22.05;69.28;101449.97;5109889;28;20046;-71
2023/06/21 09:26:58;;;;;;;3.47;2.70;;;;;;;22.06;69.81;101454.38;5105275;28;20036;-69
2023/06/21 09:29:23;;;;;;;4.78;3.42;;;;;;;22.13;72.49;101456.81;5125717;28;20120;-71
2023/06/21 09:31:49;;;;;;;4.43;3.47;;;;;;;22.25;77.07;101442.66;5108776;28;20059;-69
2023/06/21 09:34:14;;;;;;;4.75;3.92;;;;;;;22.29;76.82;101452.00;5108696;28;20035;-71
2023/06/21 09:36:40;;;;;;;4.88;4.03;;;;;;;22.33;77.79;101447.59;5123853;28;20032;-73
2023/06/21 09:39:10;;;;;;;4.93;3.63;;;;;;;22.43;79.24;101452.16;5109408;28;20027;-71
2023/06/21 09:41:36;;;;;;;4.60;3.42;;;;;;;22.43;66.23;101464.00;5110489;28;20081;-71
2023/06/21 09:44:02;;;;;;;5.28;3.20;;;;;;;22.46;69.28;101466.22;5109072;28;20031;-70
2023/06/21 09:46:28;;;;;;;4.68;3.10;;;;;;;22.52;70.29;101466.16;5106288;28;20027;-69
2023/06/21 09:48:53;;;;;;;5.22;3.38;;;;;;;22.58;69.24;101462.22;5103366;28;20475;-70
2023/06/21 09:51:23;;;;;;;5.45;4.20;;;;;;;22.57;71.85;101466.09;5108989;28;20115;-69
2023/06/21 09:53:52;;;;;;;5.37;3.90;;;;;;;22.60;69.24;101457.22;5107633;28;20028;-71
2023/06/21 09:56:18;;;;;;;4.97;3.78;;;;;;;22.54;69.56;101459.22;5107775;28;20051;-70
2023/06/21 09:58:45;;;;;;;5.07;3.95;;;;;;;22.69;72.07;101466.53;5108005;28;20501;-70
2023/06/21 10:01:17;;;;;;;6.03;3.78;;;;;;;22.73;70.51;101470.34;5104949;28;20027;-69
2023/06/21 10:03:45;;;;;;;3.97;2.88;;;;;;;22.86;70.49;101473.50;5106294;28;20035;-70
2023/06/21 10:06:16;;;;;;;3.95;2.70;;;;;;;22.85;63.81;101466.34;5108716;28;20028;-71
2023/06/21 10:08:42;;;;;;;5.68;3.20;;;;;;;22.89;63.22;101481.19;5093865;28;20028;-70
2023/06/21 10:11:07;;;;;;;3.22;2.92;;;;;;;22.92;66.05;101481.44;5093078;28;20173;-71
2023/06/21 10:13:34;;;;;;;5.38;3.88;;;;;;;22.90;64.02;101488.38;5092114;28;20111;-70
2023/06/21 10:16:01;;;;;;;5.10;3.42;;;;;;;22.91;67.46;101485.31;5091461;28;20488;-69
2023/06/21 10:18:27;;;;;;;6.43;3.67;;;;;;;23.05;70.36;101490.13;5093992;28;20035;-70
2023/06/21 10:20:57;;;;;;;6.95;4.53;;;;;;;22.95;66.34;101493.84;5095300;28;20020;-71
2023/06/21 10:23:31;;;;;;;5.68;4.10;;;;;;;22.90;69.84;101499.41;5082640;28;20041;-70
2023/06/21 10:26:00;;;;;;;7.43;4.40;;;;;;;22.88;73.18;101496.94;5085643;28;20035;-70
2023/06/21 10:28:28;;;;;;;5.38;4.43;;;;;;;22.95;72.17;101491.91;5093835;28;20552;-69
2023/06/21 10:30:56;;;;;;;4.15;3.70;;;;;;;23.08;69.01;101503.34;5095134;28;20119;-69
2023/06/21 10:33:22;;;;;;;4.65;3.30;;;;;;;23.23;67.35;101503.19;5093988;28;20028;-69
2023/06/21 10:35:51;;;;;;;3.50;2.80;;;;;;;23.44;67.41;101498.22;5074096;28;20078;-69
2023/06/21 10:38:28;;;;;;;5.32;3.30;;;;;;;23.39;62.12;101505.78;5091849;28;20111;-70
2023/06/21 10:40:54;;;;;;;4.28;3.67;;;;;;;23.33;62.05;101507.78;5094946;28;20043;-70
2023/06/21 10:43:20;;;;;;;5.75;3.55;;;;;;;23.24;63.38;101515.88;5094760;28;20028;-70
2023/06/21 10:45:48;;;;;;;5.28;3.60;;;;;;;23.12;65.42;101519.06;5094830;28;20031;-69
2023/06/21 10:48:14;;;;;;;6.28;4.38;;;;;;;23.06;64.33;101516.63;5094356;28;20032;-71
2023/06/21 10:50:40;;;;;;;6.53;4.20;;;;;;;23.05;62.90;101518.53;5088601;28;20047;-69
2023/06/21 10:53:08;;;;;;;4.85;4.45;;;;;;;23.32;65.77;101522.69;5078778;28;20495;-69
2023/06/21 10:55:34;;;;;;;4.88;3.83;;;;;;;23.41;62.86;101518.16;5073177;28;20480;-70
2023/06/21 10:58:01;;;;;;;4.57;4.18;;;;;;;23.50;62.50;101513.59;5091583;28;20028;-70
2023/06/21 11:00:27;;;;;;;8.45;4.90;;;;;;;23.47;63.00;101510.63;5072900;28;20032;-70
2023/06/21 11:02:53;;;;;;;4.70;4.30;;;;;;;23.38;64.99;101515.97;5073206;28;20052;-70
2023/06/21 11:05:22;;;;;;;8.77;4.28;;;;;;;23.39;65.89;101533.41;5073216;28;20032;-70
2023/06/21 11:08:09;;;;;;;4.72;3.15;;;;;;;23.53;65.35;101526.00;5073668;28;20131;-70
2023/06/21 11:10:50;;;;;;;5.90;3.42;;;;;;;23.67;60.20;101539.91;5074424;28;20391;-70
2023/06/21 11:13:16;;;;;;;;;;;;;;;23.78;62.98;101526.78;5074361;28;20129;-69
2023/06/21 11:15:46;;;;;;;3.40;3.10;;;;;;;23.72;56.41;101520.53;5078863;28;19977;-70
2023/06/21 11:18:18;;;;;;;3.42;2.60;;;;;;;23.83;59.09;101527.53;5092813;28;20028;-70
2023/06/21 11:20:49;;;;;;;5.43;3.42;;;;;;;23.96;60.15;101523.25;5092300;28;20471;-70
2023/06/21 11:23:19;;;;;;;3.40;2.97;;;;;;;24.12;57.20;101529.34;5093125;28;20483;-68
2023/06/21 11:25:51;;;;;;;5.88;3.33;;;;;;;24.14;56.45;101535.41;5093523;28;20273;-67
2023/06/21 11:28:19;;;;;;;3.85;3.30;;;;;;;24.18;57.63;101536.44;5091192;28;20499;-68
2023/06/21 11:31:03;;;;;;;4.57;3.53;;;;;;;24.16;58.40;101529.56;5091802;28;20043;-67
2023/06/21 11:33:30;;;;;;;4.68;3.97;;;;;;;24.14;57.23;101529.88;5093271;28;20036;-68
2023/06/21 11:36:06;;;;;;;6.00;3.55;;;;;;;24.28;58.07;101532.69;5085084;28;20072;-67
2023/06/21 11:38:32;;;;;;;4.82;3.50;;;;;;;24.55;57.27;101531.97;5076178;28;20012;-67
2023/06/21 11:40:58;;;;;;;4.93;3.90;;;;;;;24.48;55.48;101525.19;5097105;28;20038;-67
2023/06/21 11:43:24;;;;;;;4.57;3.90;;;;;;;24.37;54.64;101532.84;5114100;28;20043;-68
2023/06/21 11:46:02;;;;;;;5.57;3.80;;;;;;;24.32;55.71;101532.91;5095186;28;20032;-68
2023/06/21 11:48:28;;;;;;;3.97;3.63;;;;;;;24.23;56.41;101525.31;5092417;28;20110;-67
2023/06/21 11:50:55;;;;;;;4.68;3.67;;;;;;;24.42;55.75;101532.75;5092617;28;20135;-68
2023/06/21 11:53:26;;;;;;;4.70;4.30;;;;;;;24.41;54.33;101537.47;5092075;28;20372;-69
2023/06/21 11:55:58;;;;;;;4.43;3.60;;;;;;;24.47;56.25;101534.59;5088934;28;20044;-69
2023/06/21 11:58:25;;;;;;;4.55;3.92;;;;;;;24.52;55.90;101531.75;5091553;28;20048;-68
2023/06/21 12:00:50;;;;;;;5.50;4.13;;;;;;;24.45;54.90;101529.38;5090952;28;20036;-68
2023/06/21 12:03:18;;;;;;;10.02;4.05;;;;;;;24.61;57.16;101534.66;5092745;28;20039;-68
2023/06/21 12:05:44;;;;;;;4.43;3.58;;;;;;;24.87;57.22;101535.84;5092982;28;20085;-68
2023/06/21 12:08:09;;;;;;;5.32;3.58;;;;;;;24.88;53.45;101531.13;5092652;28;20028;-68
2023/06/21 12:10:35;;;;;;;5.40;3.33;;;;;;;24.88;55.47;101534.72;5079575;28;20031;-68
2023/06/21 12:13:06;;;;;;;5.32;3.55;;;;;;;25.00;54.11;101536.16;5088398;28;20367;-68
2023/06/21 12:15:31;;;;;;;;;;;;;;;25.19;54.90;101544.38;5091691;28;20035;-69
2023/06/21 12:17:57;;;;;;;4.65;3.10;;;;;;;25.22;52.39;101539.03;5092445;28;19915;-68
2023/06/21 12:20:23;;;;;;;7.90;3.67;;;;;;;25.34;52.36;101537.75;5092539;28;20024;-68
2023/06/21 12:22:49;;;;;;;4.13;3.70;;;;;;;25.34;53.81;101540.50;5092540;28;20459;-69
2023/06/21 12:25:14;;;;;;;7.53;3.60;;;;;;;25.25;52.28;101548.69;5074329;28;20467;-67
2023/06/21 12:27:56;;;;;;;4.32;3.65;;;;;;;25.31;53.35;101555.78;5080519;28;20116;-66
2023/06/21 12:30:22;;;;;;;4.22;3.13;;;;;;;25.49;52.72;101554.03;5075763;28;20093;-67
2023/06/21 12:32:49;;;;;;;4.25;3.25;;;;;;;25.61;51.48;101548.78;5072324;28;20107;-68
2023/06/21 12:35:17;;;;;;;5.90;2.95;;;;;;;25.60;51.14;101549.91;5071482;28;20024;-67
2023/06/21 12:37:42;;;;;;;5.85;3.67;;;;;;;25.46;50.80;101549.13;5087507;28;20033;-66
2023/06/21 12:40:08;;;;;;;4.10;3.05;;;;;;;25.32;51.85;101556.59;5082197;28;20039;-66
2023/06/21 12:42:33;;;;;;;3.58;2.80;;;;;;;25.41;50.02;101552.81;5082196;28;20040;-66
2023/06/21 12:44:59;;;;;;;3.58;2.47;;;;;;;25.65;50.14;101557.28;5088258;28;20036;-67
2023/06/21 12:47:24;;;;;;;6.90;3.10;;;;;;;25.56;49.94;101565.53;5090536;28;20467;-67
2023/06/21 12:49:58;;;;;;;5.18;2.50;;;;;;;25.55;51.43;101566.66;5090652;28;20380;-67
2023/06/21 12:52:28;;;;;;;3.55;3.25;;;;;;;25.62;51.12;101569.84;5079749;28;20043;-67
2023/06/21 12:54:55;;;;;;;7.50;4.28;;;;;;;25.43;50.03;101566.38;5090520;28;20032;-68
2023/06/21 12:57:30;;;;;;;8.13;4.05;;;;;;;25.32;51.61;101574.06;5091982;28;20035;-67
2023/06/21 12:59:55;;;;;;;4.88;3.50;;;;;;;25.48;52.75;101571.78;5092394;28;20028;-70
2023/06/21 13:02:26;;;;;;;5.95;3.20;;;;;;;25.63;49.53;101565.91;5070231;28;20035;-69
2023/06/21 13:04:53;;;;;;;3.38;2.75;;;;;;;25.76;47.86;101580.09;5072372;28;20029;-68
2023/06/21 13:07:18;;;;;;;6.53;2.80;;;;;;;25.97;47.39;101586.81;5072776;28;20073;-69
2023/06/21 13:09:43;;;;;;;6.00;2.70;;;;;;;26.04;47.54;101575.31;5092483;28;20492;-68
2023/06/21 13:12:09;;;;;;;4.90;2.43;;;;;;;26.20;47.72;101577.75;5091989;28;20028;-68
2023/06/21 13:14:34;;;;;;;3.53;2.60;;;;;;;26.03;46.10;101575.63;5092784;28;20351;-69
2023/06/21 13:16:59;;;;;;;4.05;2.58;;;;;;;26.16;46.68;101577.53;5091847;28;20080;-68
2023/06/21 13:19:25;;;;;;;5.67;2.50;;;;;;;26.15;45.49;101589.78;5072213;28;20154;-71
2023/06/21 13:21:50;;;;;;;6.50;2.92;;;;;;;26.10;46.16;101589.88;5072213;28;20611;-69
2023/06/21 13:24:15;;;;;;;4.45;2.67;;;;;;;26.35;46.73;101578.19;5087029;28;20025;-69
2023/06/21 13:26:41;;;;;;;3.20;2.53;;;;;;;26.64;47.30;101579.69;5072054;28;20044;-68
2023/06/21 13:29:06;;;;;;;3.17;2.30;;;;;;;26.77;45.23;101579.94;5071703;28;20028;-68
2023/06/21 13:31:33;;;;;;;6.18;2.50;;;;;;;26.94;45.77;101595.91;5072106;28;20259;-73
2023/06/21 13:33:58;;;;;;;5.78;4.40;;;;;;;26.69;45.13;101584.31;5072006;28;20025;-69
2023/06/21 13:36:23;;;;;;;6.10;4.00;;;;;;;26.77;46.38;101580.78;5091504;28;20537;-69
2023/06/21 13:38:48;;;;;;;4.25;3.53;;;;;;;26.84;45.80;101585.88;5088090;28;20107;-68
2023/06/21 13:41:14;;;;;;;4.40;3.60;;;;;;;26.86;46.45;101583.63;5084354;28;20030;-69
2023/06/21 13:43:39;;;;;;;5.88;3.70;;;;;;;26.79;46.33;101572.13;5093608;28;20115;-69
2023/06/21 13:46:04;;;;;;;9.80;3.92;;;;;;;26.83;45.43;101576.72;5094718;28;20036;-70
2023/06/21 13:48:30;;;;;;;4.10;3.70;;;;;;;26.51;45.72;101575.00;5095711;28;20038;-69
2023/06/21 13:50:55;;;;;;;3.78;3.42;;;;;;;26.35;46.27;101569.03;5095897;28;20020;-70
2023/06/21 13:53:21;;;;;;;4.72;3.58;;;;;;;26.02;46.97;101571.22;5094872;28;20066;-70
2023/06/21 13:55:47;;;;;;;4.07;3.55;;;;;;;26.18;47.30;101569.75;5077865;28;20056;-70
2023/06/21 13:58:12;;;;;;;4.68;3.22;;;;;;;26.24;46.40;101562.94;5089274;28;20475;-69
2023/06/21 14:00:37;;;;;;;4.78;2.67;;;;;;;26.40;46.23;101562.53;5085185;28;20089;-70
2023/06/21 14:03:03;;;;;;;3.20;2.85;;;;;;;26.42;45.72;101565.81;5089325;28;20034;-70
2023/06/21 14:05:28;;;;;;;5.80;3.20;;;;;;;26.20;44.90;101566.66;5109351;28;20032;-69
2023/06/21 14:07:54;;;;;;;3.20;2.90;;;;;;;26.27;45.63;101569.78;5094448;28;20020;-70
2023/06/21 14:10:19;;;;;;;4.13;2.72;;;;;;;26.61;45.31;101576.72;5088255;28;20432;-69
2023/06/21 14:12:44;;;;;;;4.18;2.65;;;;;;;26.53;44.14;101575.53;5095273;28;20031;-70
2023/06/21 14:15:11;;;;;;;4.53;2.95;;;;;;;26.51;44.68;101573.09;5093846;28;20028;-70
2023/06/21 14:17:38;;;;;;;3.60;3.15;;;;;;;26.59;43.74;101582.59;5095452;28;20058;-70
2023/06/21 14:20:06;;;;;;;5.80;3.40;;;;;;;26.62;44.03;101576.41;5095248;28;20079;-70
2023/06/21 14:22:32;;;;;;;4.30;3.47;;;;;;;26.58;44.36;101572.63;5095204;28;20020;-70
2023/06/21 14:24:57;;;;;;;4.35;3.28;;;;;;;26.74;45.79;101575.88;5080480;28;20043;-69
2023/06/21 14:27:25;;;;;;;3.72;3.20;;;;;;;26.85;44.02;101579.19;5074857;28;20029;-70
2023/06/21 14:29:50;;;;;;;3.70;2.92;;;;;;;27.02;43.51;101578.44;5074991;28;20361;-70
2023/06/21 14:32:15;;;;;;;3.85;3.10;;;;;;;27.22;42.56;101577.06;5074735;28;20106;-70
2023/06/21 14:34:44;;;;;;;4.28;2.88;;;;;;;27.22;41.79;101577.91;5074529;28;20115;-69
2023/06/21 14:37:15;;;;;;;2.80;2.60;;;;;;;26.93;42.36;101575.63;5093799;28;20027;-69
2023/06/21 14:39:40;;;;;;;4.28;3.15;;;;;;;26.69;43.01;101579.59;5095017;28;20024;-69
2023/06/21 14:42:11;;;;;;;6.90;3.55;;;;;;;26.40;43.63;101576.41;5093908;28;20498;-69
2023/06/21 14:44:42;;;;;;;5.63;3.17;;;;;;;26.60;43.39;101575.91;5075112;28;20115;-69
2023/06/21 14:47:08;;;;;;;6.80;3.47;;;;;;;27.00;42.63;101573.22;5103147;28;20036;-69
2023/06/21 14:49:34;;;;;;;9.32;3.60;;;;;;;27.46;43.75;101573.91;5094288;28;20055;-69
2023/06/21 14:52:00;;;;;;;5.95;2.90;;;;;;;27.75;43.03;101580.84;5093084;28;20092;-69
2023/06/21 14:54:25;;;;;;;5.03;2.78;;;;;;;27.80;41.11;101579.88;5092432;28;20472;-69
2023/06/21 14:56:51;;;;;;;3.83;3.00;;;;;;;27.77;40.83;101582.16;5094192;28;20044;-70
2023/06/21 14:59:17;;;;;;;4.28;2.95;;;;;;;27.82;40.95;101583.94;5093007;28;20275;-70
2023/06/21 15:01:42;;;;;;;4.13;3.10;;;;;;;27.81;40.35;101581.50;5094460;28;20490;-70
2023/06/21 15:04:07;;;;;;;5.60;3.00;;;;;;;27.77;40.80;101584.94;5075642;28;20031;-70
2023/06/21 15:06:35;;;;;;;6.20;2.87;;;;;;;27.67;40.64;101585.22;5086882;28;20286;-70
2023/06/21 15:09:01;;;;;;;4.25;2.80;;;;;;;27.65;41.26;101583.94;5073992;28;20277;-70
2023/06/21 15:11:26;;;;;;;5.70;2.70;;;;;;;27.27;40.96;101576.94;5073934;28;20391;-69
2023/06/21 15:13:52;;;;;;;5.75;3.10;;;;;;;27.21;41.88;101572.66;5079866;28;20059;-69
2023/06/21 15:16:17;;;;;;;7.43;2.83;;;;;;;26.99;41.53;101565.19;5072182;28;20126;-70
2023/06/21 15:18:42;;;;;;;5.32;2.72;;;;;;;26.91;42.67;101569.59;5074398;28;20078;-70
2023/06/21 15:21:08;;;;;;;4.53;3.05;;;;;;;26.96;41.36;101576.97;5077446;28;20479;-70
2023/06/21 15:23:33;;;;;;;6.80;3.10;;;;;;;27.16;41.18;101576.41;5095157;28;20032;-74
2023/06/21 15:25:58;;;;;;;5.70;2.97;;;;;;;27.35;41.03;101578.94;5114297;28;20464;-73
2023/06/21 15:28:24;;;;;;;3.47;2.75;;;;;;;27.56;40.25;101578.34;5101969;28;20070;-72
2023/06/21 15:30:50;;;;;;;5.35;2.67;;;;;;;27.92;40.90;101580.88;5081685;28;20035;-70
2023/06/21 15:33:15;;;;;;;3.90;2.63;;;;;;;28.16;40.83;101578.78;5088797;28;20047;-70
2023/06/21 15:35:41;;;;;;;2.95;2.65;;;;;;;28.15;39.42;101583.53;5093451;28;20356;-72
2023/06/21 15:38:06;;;;;;;4.95;2.47;;;;;;;28.11;39.36;101582.53;5092629;28;20464;-68
2023/06/21 15:40:31;;;;;;;3.90;3.00;;;;;;;28.41;39.27;101585.47;5104795;28;20032;-70
2023/06/21 15:42:57;;;;;;;2.77;2.00;;;;;;;28.53;40.44;101582.03;5083932;28;20033;-70
2023/06/21 15:45:22;;;;;;;6.77;2.87;;;;;;;28.34;38.94;101587.94;5071521;28;20749;-71
2023/06/21 15:47:48;;;;;;;3.50;2.60;;;;;;;28.19;39.21;101590.09;5072696;28;20294;-72
2023/06/21 15:50:13;;;;;;;3.30;2.30;;;;;;;28.59;39.19;101589.91;5089595;28;20016;-72
2023/06/21 15:52:39;;;;;;;5.50;2.40;;;;;;;28.27;38.64;101597.59;5090250;28;20114;-69
2023/06/21 15:55:05;;;;;;;5.07;2.55;;;;;;;27.97;39.40;101610.50;5091982;28;20061;-73
2023/06/21 15:57:31;;;;;;;4.05;2.50;;;;;;;27.62;38.68;101595.72;5091649;28;20036;-69
2023/06/21 15:59:56;;;;;;;4.23;2.43;;;;;;;27.84;39.86;101597.53;5096040;28;20039;-71
2023/06/21 16:02:24;;;;;;;3.97;2.72;;;;;;;27.80;39.46;101591.00;5106130;28;20277;-66
2023/06/21 16:04:53;;;;;;;3.35;2.70;;;;;;;27.79;38.66;101586.56;5090844;28;20028;-66
2023/06/21 16:07:20;;;;;;;3.22;2.92;;;;;;;27.61;39.97;101594.06;5087071;28;20028;-67
